sensor_id;sensor_type;location;lat;lon;timestamp;pressure;altitude;pressure_sealevel;temperature;humidity
37856;BME280;23694;43.274;26.924;2023-02-13T00:00:16;100904.81;;;0.23;71.82
37856;BME280;23694;43.274;26.924;2023-02-13T00:02:42;100904.81;;;0.21;71.70
37856;BME280;23694;43.274;26.924;2023-02-13T00:05:08;100898.75;;;0.12;72.29
37856;BME280;23694;43.274;26.924;2023-02-13T00:07:34;100906.56;;;0.27;71.90
37856;BME280;23694;43.274;26.924;2023-02-13T00:10:00;100903.97;;;0.27;71.69
37856;BME280;23694;43.274;26.924;2023-02-13T00:12:26;100907.44;;;0.32;71.22
37856;BME280;23694;43.274;26.924;2023-02-13T00:14:52;100911.75;;;0.38;71.06
37856;BME280;23694;43.274;26.924;2023-02-13T00:17:18;100909.09;;;0.18;71.82
37856;BME280;23694;43.274;26.924;2023-02-13T00:19:44;100897.00;;;0.02;71.94
37856;BME280;23694;43.274;26.924;2023-02-13T00:22:11;100899.47;;;-0.09;72.45
37856;BME280;23694;43.274;26.924;2023-02-13T00:24:37;100904.59;;;-0.14;72.14
37856;BME280;23694;43.274;26.924;2023-02-13T00:27:03;100905.47;;;-0.12;71.72
37856;BME280;23694;43.274;26.924;2023-02-13T00:29:29;100896.78;;;-0.27;72.06
37856;BME280;23694;43.274;26.924;2023-02-13T00:31:55;100901.09;;;-0.22;71.73
37856;BME280;23694;43.274;26.924;2023-02-13T00:34:21;100897.72;;;-0.15;71.91
37856;BME280;23694;43.274;26.924;2023-02-13T00:36:47;100895.91;;;-0.31;71.87
37856;BME280;23694;43.274;26.924;2023-02-13T00:39:13;100899.41;;;-0.18;71.58
37856;BME280;23694;43.274;26.924;2023-02-13T00:41:39;100897.72;;;-0.15;71.55
37856;BME280;23694;43.274;26.924;2023-02-13T00:44:05;100895.19;;;-0.07;71.40
37856;BME280;23694;43.274;26.924;2023-02-13T00:46:31;100904.66;;;-0.03;70.57
37856;BME280;23694;43.274;26.924;2023-02-13T00:48:57;100901.06;;;-0.29;71.20
37856;BME280;23694;43.274;26.924;2023-02-13T00:51:23;100903.75;;;-0.10;70.57
37856;BME280;23694;43.274;26.924;2023-02-13T00:53:49;100898.56;;;-0.19;70.29
37856;BME280;23694;43.274;26.924;2023-02-13T00:56:16;100903.72;;;-0.14;69.28
37856;BME280;23694;43.274;26.924;2023-02-13T00:58:42;100913.09;;;-0.25;70.34
37856;BME280;23694;43.274;26.924;2023-02-13T01:01:08;100904.53;;;-0.21;70.42
37856;BME280;23694;43.274;26.924;2023-02-13T01:03:34;100898.53;;;-0.20;70.72
37856;BME280;23694;43.274;26.924;2023-02-13T01:06:00;100895.06;;;-0.27;70.99
37856;BME280;23694;43.274;26.924;2023-02-13T01:08:26;100897.69;;;-0.19;71.19
37856;BME280;23694;43.274;26.924;2023-02-13T01:10:53;100896.91;;;-0.09;70.79
37856;BME280;23694;43.274;26.924;2023-02-13T01:13:19;100896.03;;;-0.10;70.06
37856;BME280;23694;43.274;26.924;2023-02-13T01:15:46;100898.63;;;-0.08;70.50
37856;BME280;23694;43.274;26.924;2023-02-13T01:18:17;100907.03;;;-0.34;71.15
37856;BME280;23694;43.274;26.924;2023-02-13T01:20:44;100902.81;;;-0.22;71.24
37856;BME280;23694;43.274;26.924;2023-02-13T01:23:11;100900.28;;;-0.18;71.53
37856;BME280;23694;43.274;26.924;2023-02-13T01:25:41;100907.19;;;-0.11;71.13
37856;BME280;23694;43.274;26.924;2023-02-13T01:28:07;100902.84;;;-0.21;70.84
37856;BME280;23694;43.274;26.924;2023-02-13T01:30:33;100901.94;;;-0.26;70.93
37856;BME280;23694;43.274;26.924;2023-02-13T01:33:00;100909.59;;;-0.35;70.66
37856;BME280;23694;43.274;26.924;2023-02-13T01:35:26;100911.31;;;-0.37;70.88
37856;BME280;23694;43.274;26.924;2023-02-13T01:37:52;100914.72;;;-0.38;70.83
37856;BME280;23694;43.274;26.924;2023-02-13T01:40:18;100910.47;;;-0.35;71.69
37856;BME280;23694;43.274;26.924;2023-02-13T01:42:44;100901.91;;;-0.32;71.52
37856;BME280;23694;43.274;26.924;2023-02-13T01:45:22;100917.34;;;-0.34;71.16
37856;BME280;23694;43.274;26.924;2023-02-13T01:48:02;100925.09;;;-0.27;71.19
37856;BME280;23694;43.274;26.924;2023-02-13T01:55:49;100895.91;;;-0.31;71.19
37856;BME280;23694;43.274;26.924;2023-02-13T01:58:20;100906.25;;;-0.25;71.24
37856;BME280;23694;43.274;26.924;2023-02-13T02:00:47;100899.38;;;-0.24;70.81
37856;BME280;23694;43.274;26.924;2023-02-13T02:03:26;100907.06;;;-0.29;71.05
37856;BME280;23694;43.274;26.924;2023-02-13T02:05:56;100897.63;;;-0.32;71.09
37856;BME280;23694;43.274;26.924;2023-02-13T02:08:23;100902.69;;;-0.44;71.18
37856;BME280;23694;43.274;26.924;2023-02-13T02:10:49;100898.28;;;-0.58;72.22
37856;BME280;23694;43.274;26.924;2023-02-13T02:13:18;100903.53;;;-0.43;70.97
37856;BME280;23694;43.274;26.924;2023-02-13T02:15:46;100917.25;;;-0.46;70.64
37856;BME280;23694;43.274;26.924;2023-02-13T02:18:23;100918.97;;;-0.46;71.38
37856;BME280;23694;43.274;26.924;2023-02-13T02:26:32;100912.00;;;-0.59;71.86
37856;BME280;23694;43.274;26.924;2023-02-13T02:45:52;100913.56;;;-0.72;72.22
37856;BME280;23694;43.274;26.924;2023-02-13T02:48:38;100909.28;;;-0.73;72.10
37856;BME280;23694;43.274;26.924;2023-02-13T02:54:09;100917.00;;;-0.72;71.65
37856;BME280;23694;43.274;26.924;2023-02-13T02:57:02;100916.97;;;-0.75;71.70
37856;BME280;23694;43.274;26.924;2023-02-13T02:59:35;100914.34;;;-0.82;72.21
37856;BME280;23694;43.274;26.924;2023-02-13T03:02:21;100914.41;;;-0.76;71.78
37856;BME280;23694;43.274;26.924;2023-02-13T03:05:16;100910.72;;;-1.03;72.98
37856;BME280;23694;43.274;26.924;2023-02-13T03:08:02;100908.44;;;-1.52;74.57
37856;BME280;23694;43.274;26.924;2023-02-13T03:10:32;100903.50;;;-1.36;73.73
37856;BME280;23694;43.274;26.924;2023-02-13T03:13:48;100917.13;;;-1.41;73.92
37856;BME280;23694;43.274;26.924;2023-02-13T03:16:18;100911.19;;;-1.36;74.37
37856;BME280;23694;43.274;26.924;2023-02-13T03:19:04;100912.06;;;-1.35;74.12
37856;BME280;23694;43.274;26.924;2023-02-13T03:22:02;100913.66;;;-1.45;74.17
37856;BME280;23694;43.274;26.924;2023-02-13T03:41:40;100915.59;;;-1.30;73.80
37856;BME280;23694;43.274;26.924;2023-02-13T03:44:35;100914.75;;;-1.27;73.21
37856;BME280;23694;43.274;26.924;2023-02-13T03:47:00;100912.25;;;-1.21;72.93
37856;BME280;23694;43.274;26.924;2023-02-13T03:49:32;100908.88;;;-1.17;72.64
37856;BME280;23694;43.274;26.924;2023-02-13T03:54:48;100910.66;;;-1.10;72.37
37856;BME280;23694;43.274;26.924;2023-02-13T03:57:36;100904.56;;;-1.17;72.27
37856;BME280;23694;43.274;26.924;2023-02-13T04:00:24;100903.69;;;-1.20;71.90
37856;BME280;23694;43.274;26.924;2023-02-13T04:03:00;100901.94;;;-1.23;71.91
37856;BME280;23694;43.274;26.924;2023-02-13T04:05:33;100903.59;;;-1.28;72.23
37856;BME280;23694;43.274;26.924;2023-02-13T04:08:01;100901.03;;;-1.30;72.43
37856;BME280;23694;43.274;26.924;2023-02-13T04:10:31;100908.66;;;-1.33;72.65
37856;BME280;23694;43.274;26.924;2023-02-13T04:13:11;100895.78;;;-1.36;72.61
37856;BME280;23694;43.274;26.924;2023-02-13T04:15:49;100900.06;;;-1.35;72.77
37856;BME280;23694;43.274;26.924;2023-02-13T04:18:22;100895.59;;;-1.51;73.03
37856;BME280;23694;43.274;26.924;2023-02-13T04:20:50;100894.78;;;-1.48;72.95
37856;BME280;23694;43.274;26.924;2023-02-13T04:23:16;100903.84;;;-1.79;74.01
37856;BME280;23694;43.274;26.924;2023-02-13T04:25:46;100895.44;;;-1.66;73.53
37856;BME280;23694;43.274;26.924;2023-02-13T04:28:13;100902.34;;;-1.62;74.36
37856;BME280;23694;43.274;26.924;2023-02-13T04:30:39;100894.75;;;-1.51;74.17
37856;BME280;23694;43.274;26.924;2023-02-13T04:33:05;100897.19;;;-1.64;73.70
37856;BME280;23694;43.274;26.924;2023-02-13T04:35:31;100903.09;;;-1.69;73.99
37856;BME280;23694;43.274;26.924;2023-02-13T04:37:58;100893.66;;;-1.72;73.83
37856;BME280;23694;43.274;26.924;2023-02-13T04:40:24;100896.84;;;-1.89;74.60
37856;BME280;23694;43.274;26.924;2023-02-13T04:42:50;100895.84;;;-1.98;74.62
37856;BME280;23694;43.274;26.924;2023-02-13T04:45:16;100896.78;;;-1.94;74.83
37856;BME280;23694;43.274;26.924;2023-02-13T04:47:42;100901.19;;;-1.85;74.97
37856;BME280;23694;43.274;26.924;2023-02-13T04:50:09;100905.56;;;-1.77;74.28
37856;BME280;23694;43.274;26.924;2023-02-13T04:52:35;100907.25;;;-1.79;74.52
37856;BME280;23694;43.274;26.924;2023-02-13T04:55:01;100899.63;;;-1.74;74.12
37856;BME280;23694;43.274;26.924;2023-02-13T04:57:27;100898.72;;;-1.78;74.32
37856;BME280;23694;43.274;26.924;2023-02-13T04:59:53;100887.63;;;-1.74;74.23
37856;BME280;23694;43.274;26.924;2023-02-13T05:02:19;100892.88;;;-1.65;73.83
37856;BME280;23694;43.274;26.924;2023-02-13T05:04:45;100905.69;;;-1.68;73.57
37856;BME280;23694;43.274;26.924;2023-02-13T05:07:11;100903.06;;;-1.72;73.54
37856;BME280;23694;43.274;26.924;2023-02-13T05:09:37;100906.38;;;-1.82;73.26
37856;BME280;23694;43.274;26.924;2023-02-13T05:12:03;100911.44;;;-1.87;73.66
37856;BME280;23694;43.274;26.924;2023-02-13T05:14:29;100918.34;;;-1.83;73.41
37856;BME280;23694;43.274;26.924;2023-02-13T05:16:55;100924.34;;;-1.82;73.77
37856;BME280;23694;43.274;26.924;2023-02-13T05:19:21;100921.06;;;-1.71;73.53
37856;BME280;23694;43.274;26.924;2023-02-13T05:21:47;100913.78;;;-1.36;72.92
37856;BME280;23694;43.274;26.924;2023-02-13T05:24:31;100919.59;;;-0.69;70.14
37856;BME280;23694;43.274;26.924;2023-02-13T05:26:57;100920.72;;;-0.42;68.42
37856;BME280;23694;43.274;26.924;2023-02-13T05:29:23;100918.47;;;0.04;66.83
37856;BME280;23694;43.274;26.924;2023-02-13T05:31:55;100931.63;;;0.60;63.87
37856;BME280;23694;43.274;26.924;2023-02-13T05:34:23;100933.50;;;1.08;62.29
37856;BME280;23694;43.274;26.924;2023-02-13T05:36:50;100930.13;;;1.64;58.77
37856;BME280;23694;43.274;26.924;2023-02-13T05:39:16;100938.69;;;2.09;56.93
37856;BME280;23694;43.274;26.924;2023-02-13T05:41:44;100941.19;;;2.38;54.87
37856;BME280;23694;43.274;26.924;2023-02-13T05:44:11;100943.59;;;2.85;53.77
37856;BME280;23694;43.274;26.924;2023-02-13T05:46:39;100937.13;;;3.56;51.58
37856;BME280;23694;43.274;26.924;2023-02-13T05:49:05;100948.50;;;4.32;48.20
37856;BME280;23694;43.274;26.924;2023-02-13T05:51:32;100942.22;;;5.20;46.27
37856;BME280;23694;43.274;26.924;2023-02-13T05:53:58;100940.91;;;5.50;44.60
37856;BME280;23694;43.274;26.924;2023-02-13T05:56:24;100941.53;;;5.64;43.79
37856;BME280;23694;43.274;26.924;2023-02-13T05:58:51;100936.19;;;5.73;42.54
37856;BME280;23694;43.274;26.924;2023-02-13T06:01:18;100932.78;;;6.21;42.19
37856;BME280;23694;43.274;26.924;2023-02-13T06:03:44;100928.47;;;6.64;40.87
37856;BME280;23694;43.274;26.924;2023-02-13T06:06:11;100923.06;;;7.12;39.64
37856;BME280;23694;43.274;26.924;2023-02-13T06:08:37;100928.44;;;7.43;38.56
37856;BME280;23694;43.274;26.924;2023-02-13T06:11:03;100932.75;;;7.81;37.96
37856;BME280;23694;43.274;26.924;2023-02-13T06:13:30;100930.63;;;8.28;36.32
37856;BME280;23694;43.274;26.924;2023-02-13T06:15:56;100921.63;;;9.00;35.77
37856;BME280;23694;43.274;26.924;2023-02-13T06:18:22;100916.06;;;9.65;34.10
37856;BME280;23694;43.274;26.924;2023-02-13T06:20:48;100923.25;;;10.11;33.10
37856;BME280;23694;43.274;26.924;2023-02-13T06:23:15;100921.19;;;10.46;32.50
37856;BME280;23694;43.274;26.924;2023-02-13T06:25:41;100930.13;;;11.10;31.62
37856;BME280;23694;43.274;26.924;2023-02-13T06:28:07;100919.25;;;12.05;30.23
37856;BME280;23694;43.274;26.924;2023-02-13T06:30:34;100918.50;;;12.43;28.74
37856;BME280;23694;43.274;26.924;2023-02-13T06:33:00;100920.13;;;13.22;28.43
37856;BME280;23694;43.274;26.924;2023-02-13T06:35:26;100915.66;;;14.12;26.37
37856;BME280;23694;43.274;26.924;2023-02-13T06:37:52;100911.56;;;15.05;25.59
37856;BME280;23694;43.274;26.924;2023-02-13T06:40:18;100912.72;;;15.31;25.12
37856;BME280;23694;43.274;26.924;2023-02-13T06:42:44;100909.88;;;16.40;23.60
37856;BME280;23694;43.274;26.924;2023-02-13T06:45:11;100904.97;;;17.59;22.06
37856;BME280;23694;43.274;26.924;2023-02-13T06:47:42;100903.63;;;18.31;21.13
37856;BME280;23694;43.274;26.924;2023-02-13T06:50:09;100901.72;;;19.31;20.10
37856;BME280;23694;43.274;26.924;2023-02-13T06:52:35;100901.00;;;19.77;19.38
37856;BME280;23694;43.274;26.924;2023-02-13T06:55:02;100898.34;;;20.23;18.65
37856;BME280;23694;43.274;26.924;2023-02-13T06:57:30;100890.53;;;20.55;18.42
37856;BME280;23694;43.274;26.924;2023-02-13T06:59:59;100897.31;;;20.48;18.27
37856;BME280;23694;43.274;26.924;2023-02-13T07:02:30;100900.22;;;20.90;17.65
37856;BME280;23694;43.274;26.924;2023-02-13T07:04:56;100907.78;;;20.39;18.37
37856;BME280;23694;43.274;26.924;2023-02-13T07:07:22;100907.19;;;17.65;20.00
37856;BME280;23694;43.274;26.924;2023-02-13T07:09:48;100928.06;;;12.64;25.32
37856;BME280;23694;43.274;26.924;2023-02-13T07:12:14;100931.28;;;9.54;30.25
37856;BME280;23694;43.274;26.924;2023-02-13T07:14:40;100939.91;;;8.40;32.81
37856;BME280;23694;43.274;26.924;2023-02-13T07:17:06;100947.47;;;3.56;44.22
37856;BME280;23694;43.274;26.924;2023-02-13T07:19:35;100950.41;;;4.90;41.80
37856;BME280;23694;43.274;26.924;2023-02-13T07:22:01;100948.75;;;4.84;41.73
37856;BME280;23694;43.274;26.924;2023-02-13T07:24:27;100956.28;;;3.35;45.00
37856;BME280;23694;43.274;26.924;2023-02-13T07:26:53;100951.63;;;1.95;49.36
37856;BME280;23694;43.274;26.924;2023-02-13T07:29:20;100950.78;;;1.67;52.73
37856;BME280;23694;43.274;26.924;2023-02-13T07:31:46;100956.75;;;1.26;56.04
37856;BME280;23694;43.274;26.924;2023-02-13T07:34:12;100955.06;;;1.35;57.72
37856;BME280;23694;43.274;26.924;2023-02-13T07:36:38;100942.16;;;1.38;56.53
37856;BME280;23694;43.274;26.924;2023-02-13T07:39:04;100930.97;;;1.43;57.04
37856;BME280;23694;43.274;26.924;2023-02-13T07:41:30;100946.44;;;2.12;54.34
37856;BME280;23694;43.274;26.924;2023-02-13T07:43:56;100942.16;;;1.62;55.99
37856;BME280;23694;43.274;26.924;2023-02-13T07:46:22;100926.66;;;1.70;56.62
37856;BME280;23694;43.274;26.924;2023-02-13T07:48:51;100929.22;;;2.03;55.05
37856;BME280;23694;43.274;26.924;2023-02-13T07:51:17;100930.03;;;2.27;53.58
37856;BME280;23694;43.274;26.924;2023-02-13T07:53:43;100920.34;;;2.77;51.70
37856;BME280;23694;43.274;26.924;2023-02-13T07:56:10;100913.53;;;2.61;52.72
37856;BME280;23694;43.274;26.924;2023-02-13T07:58:37;100920.66;;;1.46;56.36
37856;BME280;23694;43.274;26.924;2023-02-13T08:01:09;100915.47;;;1.77;58.22
37856;BME280;23694;43.274;26.924;2023-02-13T08:03:36;100918.03;;;2.04;56.95
37856;BME280;23694;43.274;26.924;2023-02-13T08:06:03;100917.06;;;2.39;56.25
37856;BME280;23694;43.274;26.924;2023-02-13T08:08:30;100913.38;;;2.93;54.95
37856;BME280;23694;43.274;26.924;2023-02-13T08:10:56;100914.19;;;2.97;54.07
37856;BME280;23694;43.274;26.924;2023-02-13T08:13:46;100909.97;;;2.82;54.18
37856;BME280;23694;43.274;26.924;2023-02-13T08:16:12;100899.94;;;2.01;57.26
37856;BME280;23694;43.274;26.924;2023-02-13T08:18:38;100898.88;;;2.57;57.08
37856;BME280;23694;43.274;26.924;2023-02-13T08:21:05;100899.75;;;2.61;57.80
37856;BME280;23694;43.274;26.924;2023-02-13T08:23:31;100898.53;;;3.15;55.67
37856;BME280;23694;43.274;26.924;2023-02-13T08:26:00;100888.91;;;3.38;53.88
37856;BME280;23694;43.274;26.924;2023-02-13T08:28:28;100894.63;;;3.74;53.30
37856;BME280;23694;43.274;26.924;2023-02-13T08:30:54;100898.34;;;3.44;53.63
37856;BME280;23694;43.274;26.924;2023-02-13T08:33:20;100891.34;;;3.55;53.76
37856;BME280;23694;43.274;26.924;2023-02-13T08:35:46;100892.53;;;4.12;51.78
37856;BME280;23694;43.274;26.924;2023-02-13T08:38:12;100888.75;;;4.38;50.07
37856;BME280;23694;43.274;26.924;2023-02-13T08:40:39;100882.41;;;4.63;48.57
37856;BME280;23694;43.274;26.924;2023-02-13T08:43:05;100874.84;;;4.43;47.80
37856;BME280;23694;43.274;26.924;2023-02-13T08:45:31;100872.38;;;4.99;45.08
37856;BME280;23694;43.274;26.924;2023-02-13T08:47:58;100879.44;;;3.36;45.68
37856;BME280;23694;43.274;26.924;2023-02-13T08:50:26;100875.44;;;4.67;45.61
37856;BME280;23694;43.274;26.924;2023-02-13T08:52:53;100880.47;;;4.79;41.73
37856;BME280;23694;43.274;26.924;2023-02-13T08:55:19;100876.34;;;5.24;40.76
37856;BME280;23694;43.274;26.924;2023-02-13T08:57:45;100868.09;;;4.96;40.20
37856;BME280;23694;43.274;26.924;2023-02-13T09:00:11;100873.44;;;5.44;38.53
37856;BME280;23694;43.274;26.924;2023-02-13T09:02:38;100874.47;;;5.34;38.59
37856;BME280;23694;43.274;26.924;2023-02-13T09:05:04;100865.13;;;5.22;39.22
37856;BME280;23694;43.274;26.924;2023-02-13T09:07:30;100867.78;;;4.58;40.71
37856;BME280;23694;43.274;26.924;2023-02-13T09:09:56;100866.22;;;4.41;41.56
37856;BME280;23694;43.274;26.924;2023-02-13T09:12:22;100855.91;;;5.01;39.62
37856;BME280;23694;43.274;26.924;2023-02-13T09:14:48;100860.91;;;4.55;40.15
37856;BME280;23694;43.274;26.924;2023-02-13T09:17:14;100859.13;;;5.68;37.65
37856;BME280;23694;43.274;26.924;2023-02-13T09:19:43;100852.81;;;6.29;37.00
37856;BME280;23694;43.274;26.924;2023-02-13T09:22:10;100851.47;;;6.91;36.05
37856;BME280;23694;43.274;26.924;2023-02-13T09:24:36;100851.28;;;7.36;35.33
37856;BME280;23694;43.274;26.924;2023-02-13T09:27:03;100850.16;;;7.11;35.68
37856;BME280;23694;43.274;26.924;2023-02-13T09:29:30;100838.66;;;7.19;35.42
37856;BME280;23694;43.274;26.924;2023-02-13T09:31:58;100836.16;;;7.15;35.27
37856;BME280;23694;43.274;26.924;2023-02-13T09:34:24;100832.41;;;6.89;36.10
37856;BME280;23694;43.274;26.924;2023-02-13T09:36:53;100831.34;;;6.61;36.63
37856;BME280;23694;43.274;26.924;2023-02-13T09:39:19;100829.44;;;7.05;36.12
37856;BME280;23694;43.274;26.924;2023-02-13T09:41:48;100816.31;;;6.72;37.49
37856;BME280;23694;43.274;26.924;2023-02-13T09:50:22;100805.47;;;6.53;37.07
37856;BME280;23694;43.274;26.924;2023-02-13T09:52:51;100792.78;;;7.80;35.81
37856;BME280;23694;43.274;26.924;2023-02-13T09:55:23;100789.03;;;8.51;34.29
37856;BME280;23694;43.274;26.924;2023-02-13T09:57:58;100780.19;;;8.83;34.80
37856;BME280;23694;43.274;26.924;2023-02-13T10:00:34;100793.59;;;7.82;37.24
37856;BME280;23694;43.274;26.924;2023-02-13T10:06:48;100770.56;;;8.57;37.24
37856;BME280;23694;43.274;26.924;2023-02-13T10:09:14;100763.50;;;8.87;37.03
37856;BME280;23694;43.274;26.924;2023-02-13T10:14:24;100750.28;;;8.65;37.08
37856;BME280;23694;43.274;26.924;2023-02-13T10:22:23;100750.66;;;9.32;36.47
37856;BME280;23694;43.274;26.924;2023-02-13T10:25:11;100740.97;;;9.09;36.44
37856;BME280;23694;43.274;26.924;2023-02-13T10:27:48;100746.03;;;9.15;35.66
37856;BME280;23694;43.274;26.924;2023-02-13T10:33:29;100730.38;;;9.14;35.88
37856;BME280;23694;43.274;26.924;2023-02-13T10:38:23;100721.47;;;9.19;36.32
37856;BME280;23694;43.274;26.924;2023-02-13T10:41:14;100722.66;;;9.11;35.94
37856;BME280;23694;43.274;26.924;2023-02-13T10:43:58;100713.25;;;9.30;35.59
37856;BME280;23694;43.274;26.924;2023-02-13T10:58:18;100702.22;;;9.22;36.38
37856;BME280;23694;43.274;26.924;2023-02-13T11:03:25;100698.66;;;9.48;36.13
37856;BME280;23694;43.274;26.924;2023-02-13T11:05:53;100695.56;;;9.62;36.03
37856;BME280;23694;43.274;26.924;2023-02-13T11:10:47;100681.38;;;9.44;35.86
37856;BME280;23694;43.274;26.924;2023-02-13T11:13:16;100684.22;;;9.38;35.74
37856;BME280;23694;43.274;26.924;2023-02-13T11:16:01;100683.03;;;9.46;36.33
37856;BME280;23694;43.274;26.924;2023-02-13T11:18:30;100677.19;;;9.63;35.96
37856;BME280;23694;43.274;26.924;2023-02-13T11:21:10;100671.78;;;9.44;36.14
37856;BME280;23694;43.274;26.924;2023-02-13T11:23:43;100673.13;;;9.31;35.92
37856;BME280;23694;43.274;26.924;2023-02-13T11:29:00;100653.66;;;9.87;35.86
37856;BME280;23694;43.274;26.924;2023-02-13T11:31:35;100646.22;;;9.76;36.12
37856;BME280;23694;43.274;26.924;2023-02-13T11:36:51;100645.91;;;9.83;36.26
37856;BME280;23694;43.274;26.924;2023-02-13T11:39:20;100645.56;;;9.93;35.81
37856;BME280;23694;43.274;26.924;2023-02-13T11:41:47;100644.03;;;9.87;36.22
37856;BME280;23694;43.274;26.924;2023-02-13T11:44:27;100646.06;;;9.32;37.40
37856;BME280;23694;43.274;26.924;2023-02-13T11:46:57;100641.34;;;9.42;37.21
37856;BME280;23694;43.274;26.924;2023-02-13T11:49:26;100632.53;;;9.68;36.64
37856;BME280;23694;43.274;26.924;2023-02-13T11:51:57;100630.44;;;9.77;36.22
37856;BME280;23694;43.274;26.924;2023-02-13T11:56:50;100620.59;;;9.84;37.08
37856;BME280;23694;43.274;26.924;2023-02-13T11:59:17;100603.25;;;9.81;36.87
37856;BME280;23694;43.274;26.924;2023-02-13T12:02:00;100608.00;;;9.94;36.82
37856;BME280;23694;43.274;26.924;2023-02-13T12:04:27;100601.44;;;9.60;36.87
37856;BME280;23694;43.274;26.924;2023-02-13T12:07:00;100601.19;;;9.66;37.83
37856;BME280;23694;43.274;26.924;2023-02-13T12:09:26;100594.75;;;9.75;37.27
37856;BME280;23694;43.274;26.924;2023-02-13T12:11:55;100595.00;;;9.69;37.48
37856;BME280;23694;43.274;26.924;2023-02-13T12:14:26;100593.75;;;9.79;37.61
37856;BME280;23694;43.274;26.924;2023-02-13T12:17:04;100589.44;;;9.78;38.14
37856;BME280;23694;43.274;26.924;2023-02-13T12:19:43;100587.09;;;9.70;38.61
37856;BME280;23694;43.274;26.924;2023-02-13T12:22:26;100586.47;;;9.87;37.71
37856;BME280;23694;43.274;26.924;2023-02-13T12:25:18;100590.78;;;10.10;37.47
37856;BME280;23694;43.274;26.924;2023-02-13T12:49:34;100582.44;;;9.78;38.98
37856;BME280;23694;43.274;26.924;2023-02-13T13:06:26;100570.34;;;9.29;41.04
37856;BME280;23694;43.274;26.924;2023-02-13T13:12:20;100558.03;;;9.33;40.36
37856;BME280;23694;43.274;26.924;2023-02-13T13:14:50;100558.75;;;9.36;40.43
37856;BME280;23694;43.274;26.924;2023-02-13T13:23:19;100571.19;;;9.76;39.62
37856;BME280;23694;43.274;26.924;2023-02-13T13:25:58;100567.59;;;9.79;39.47
37856;BME280;23694;43.274;26.924;2023-02-13T13:28:37;100559.69;;;9.57;40.24
37856;BME280;23694;43.274;26.924;2023-02-13T13:31:05;100562.97;;;9.40;40.33
37856;BME280;23694;43.274;26.924;2023-02-13T13:33:32;100556.22;;;9.57;40.44
37856;BME280;23694;43.274;26.924;2023-02-13T13:36:25;100562.63;;;9.71;40.33
37856;BME280;23694;43.274;26.924;2023-02-13T13:49:51;100540.22;;;9.42;40.66
37856;BME280;23694;43.274;26.924;2023-02-13T13:54:49;100528.34;;;9.34;40.96
37856;BME280;23694;43.274;26.924;2023-02-13T13:58:17;100534.03;;;9.21;41.56
37856;BME280;23694;43.274;26.924;2023-02-13T14:07:40;100512.66;;;8.87;41.57
37856;BME280;23694;43.274;26.924;2023-02-13T14:20:40;100513.31;;;8.69;43.31
37856;BME280;23694;43.274;26.924;2023-02-13T14:25:42;100504.84;;;8.62;43.23
37856;BME280;23694;43.274;26.924;2023-02-13T14:28:24;100512.94;;;8.54;43.92
37856;BME280;23694;43.274;26.924;2023-02-13T14:30:52;100512.28;;;8.21;44.53
37856;BME280;23694;43.274;26.924;2023-02-13T14:33:30;100511.91;;;8.34;44.31
37856;BME280;23694;43.274;26.924;2023-02-13T14:36:06;100517.69;;;7.90;44.97
37856;BME280;23694;43.274;26.924;2023-02-13T14:38:33;100509.66;;;7.97;45.68
37856;BME280;23694;43.274;26.924;2023-02-13T14:41:00;100506.59;;;7.84;45.74
37856;BME280;23694;43.274;26.924;2023-02-13T14:43:46;100500.50;;;7.83;45.92
37856;BME280;23694;43.274;26.924;2023-02-13T14:46:25;100500.97;;;7.68;46.96
37856;BME280;23694;43.274;26.924;2023-02-13T14:49:00;100497.47;;;7.41;47.68
37856;BME280;23694;43.274;26.924;2023-02-13T14:54:24;100491.38;;;7.42;48.92
37856;BME280;23694;43.274;26.924;2023-02-13T14:56:53;100493.78;;;7.48;48.72
37856;BME280;23694;43.274;26.924;2023-02-13T14:59:28;100491.03;;;7.53;48.97
37856;BME280;23694;43.274;26.924;2023-02-13T15:04:41;100500.09;;;7.41;49.32
37856;BME280;23694;43.274;26.924;2023-02-13T15:07:21;100495.81;;;7.39;49.76
37856;BME280;23694;43.274;26.924;2023-02-13T15:09:58;100492.88;;;7.21;50.52
37856;BME280;23694;43.274;26.924;2023-02-13T15:12:29;100495.56;;;7.18;50.99
37856;BME280;23694;43.274;26.924;2023-02-13T15:14:56;100491.38;;;7.13;51.35
37856;BME280;23694;43.274;26.924;2023-02-13T15:17:40;100492.91;;;6.90;52.42
37856;BME280;23694;43.274;26.924;2023-02-13T15:22:44;100498.16;;;6.89;52.75
37856;BME280;23694;43.274;26.924;2023-02-13T15:25:33;100483.00;;;6.72;53.40
37856;BME280;23694;43.274;26.924;2023-02-13T15:28:01;100492.81;;;6.62;53.42
37856;BME280;23694;43.274;26.924;2023-02-13T15:30:32;100498.06;;;6.61;53.83
37856;BME280;23694;43.274;26.924;2023-02-13T15:33:24;100504.69;;;6.40;54.61
37856;BME280;23694;43.274;26.924;2023-02-13T15:35:59;100501.44;;;6.32;55.37
37856;BME280;23694;43.274;26.924;2023-02-13T15:38:34;100507.56;;;6.29;55.81
37856;BME280;23694;43.274;26.924;2023-02-13T15:41:18;100516.34;;;6.25;56.18
37856;BME280;23694;43.274;26.924;2023-02-13T15:43:47;100513.97;;;6.16;56.53
37856;BME280;23694;43.274;26.924;2023-02-13T15:46:32;100516.19;;;5.97;57.66
37856;BME280;23694;43.274;26.924;2023-02-13T15:49:03;100521.06;;;6.11;57.10
37856;BME280;23694;43.274;26.924;2023-02-13T15:51:30;100509.91;;;6.06;57.04
37856;BME280;23694;43.274;26.924;2023-02-13T15:54:02;100517.09;;;5.96;57.63
37856;BME280;23694;43.274;26.924;2023-02-13T15:56:30;100512.59;;;6.03;57.78
37856;BME280;23694;43.274;26.924;2023-02-13T15:58:58;100509.28;;;5.96;58.36
37856;BME280;23694;43.274;26.924;2023-02-13T16:01:24;100510.47;;;5.80;59.45
37856;BME280;23694;43.274;26.924;2023-02-13T16:04:12;100511.31;;;5.82;59.41
37856;BME280;23694;43.274;26.924;2023-02-13T16:06:43;100520.69;;;5.91;59.37